Aviation Digital Data Service (ADDS)

Output produced by METARs form (0842 UTC 19 April 2019)
found at http://www.aviationweather.gov/metar/data/
 
Forecast for: EGAC (BELFAST HARBOUR , GB)
Text: TAF EGAC 190805Z 1909/1918 VRB04KT 6000 NSC
Forecast period: 0900 to 1800 UTC 19 April 2019
Forecast type: FROM: standard forecast or significant change
Winds: variable direction winds at 5 MPH (4 knots; 2.1 m/s)
Visibility: 4 miles (6 km)
Ceiling: unknown
Clouds: missing
Weather: no significant weather forecast for this period
Text: BECMG 1909/1911 CAVOK
Forecast period: 0900 to 1800 UTC 19 April 2019
Forecast type: BECOMING: Conditions expected to become as follows by 1100 UTC 19 April 2019
Winds: variable direction winds at 5 MPH (4 knots; 2.1 m/s)
Visibility: 6 or more miles 10+ km)
Ceiling: unknown
Clouds: missing
Weather: NSW  (no significant weather)